Mary K Cavarra — WDB9000 — position and weather

sailwx.info

Track history (hours):
 
Tides and Currents Weather Stations Pressure Air Temp Water Temp Dewpoint Dewpoint Depression Visibility Wind Speed Wind Dir Waves Ship Positions

Mary K Cavarra

Owner: Ingram Barge Company LLC, Nashville, TN. More information available from US FCC via Universal Licensing System and Coast Guard Vessel Documentation Center.

Last reported at 2018-May-13 14:46 UTC. Time now 2018-Jun-21 02:51 UTC.
Position N 38°38' W 090°11'.
Warning: this ship's position is 38 days out of date.

Length 48 m; draft 3.2 m.

Type: Towing. MMSI: 366967650.

Date/timePositionNaut miles runAvg speedWind from/ knotsBaromVisibWave heightAir tempDewpointWater temp
2018-May-13 14:46N 38°38' W 090°11'310.3
2018-May-13 14:30N 38°40' W 090°11'2 2.7
2018-May-13 13:45N 38°42' W 090°11'1 2.1
2018-May-13 13:26N 38°43' W 090°10'2 4.1
2018-May-13 13:00N 38°45' W 090°09'3 5.0
2018-May-13 12:30N 38°47' W 090°08'3 6.5
2018-May-13 12:00N 38°50' W 090°07'3 6.2
2018-May-13 11:31N 38°52' W 090°09'0 0.6
2018-May-13 11:00N 38°52' W 090°09'1 2.7
2018-May-13 10:31N 38°53' W 090°11'4 7.2
2018-May-13 10:00N 38°55' W 090°15'0 0.2
2018-May-13 09:31N 38°55' W 090°15'0 0.3
2018-May-13 09:00N 38°55' W 090°14'0 0.1
2018-May-13 08:31N 38°55' W 090°14'0 0.0
2018-May-13 08:00N 38°55' W 090°14'0 0.3
2018-May-13 07:31N 38°55' W 090°15'0 0.3
2018-May-13 07:01N 38°55' W 090°14'1 1.7
2018-May-13 06:31N 38°55' W 090°14'2 4.6
2018-May-13 06:00N 38°53' W 090°11'2 4.4
2018-May-13 05:30N 38°52' W 090°09'0 0.7
2018-May-13 05:01N 38°52' W 090°09'1 1.8
2018-May-13 04:31N 38°51' W 090°08'2 3.9
2018-May-13 04:00N 38°50' W 090°07'2 4.9
2018-May-13 03:31N 38°47' W 090°07'3 5.0
2018-May-13 03:00N 38°45' W 090°09'2 4.2
2018-May-13 02:27N 38°43' W 090°10'1 1.4
2018-May-13 01:28N 38°42' W 090°11'1 2.4
2018-May-13 00:59N 38°41' W 090°11'2 4.2
2018-May-13 00:31N 38°39' W 090°11'7 0.8
2018-May-12 15:02N 38°32' W 090°15'0 0.0
2018-May-11 11:43N 38°32' W 090°15'0 0.0
2018-May-11 11:29N 38°32' W 090°15'0 0.0
2018-May-11 09:16N 38°32' W 090°15'1 2.9
2018-May-11 09:00N 38°32' W 090°16'0 0.4
2018-May-11 07:57N 38°31' W 090°16'0 0.0
2018-May-11 07:26N 38°31' W 090°16'0 0.0
2018-May-11 06:39N 38°31' W 090°16'1 0.5
2018-May-11 04:17N 38°32' W 090°15'  
2018-May-07 04:31N 38°32' W 090°16'0 2.4
2018-May-07 04:31N 38°32' W 090°16'0 0.5
2018-May-07 03:59N 38°31' W 090°16'1 2.4
2018-May-07 03:30N 38°32' W 090°15'0 0.1
2018-May-07 03:00N 38°32' W 090°15'0 0.0
2018-May-07 02:30N 38°32' W 090°15'0 0.0
2018-May-07 02:00N 38°32' W 090°15'0 0.0
2018-May-06 23:00N 38°32' W 090°15'16 7.0
2018-May-06 20:40N 38°48' W 090°07'2 8.8
2018-May-06 20:28N 38°49' W 090°07'1 1.4
2018-May-06 20:01N 38°50' W 090°06'0 0.0
2018-May-06 19:24N 38°50' W 090°06'0 0.0
2018-May-06 19:01N 38°50' W 090°06'0 0.0
2018-May-06 18:30N 38°50' W 090°06'0 0.0
2018-May-06 18:01N 38°50' W 090°06'0 0.0
2018-May-06 17:31N 38°50' W 090°06'0 0.0
2018-May-06 17:01N 38°50' W 090°06'0 0.0
2018-May-06 16:31N 38°50' W 090°06'0 0.0
2018-May-06 16:01N 38°50' W 090°06'0 0.1
2018-May-06 15:30N 38°50' W 090°06'0 0.0
2018-May-06 14:58N 38°50' W 090°06'0 0.0
2018-May-06 14:29N 38°50' W 090°06'0 0.0
2018-May-06 14:01N 38°50' W 090°06'0 0.0
2018-May-06 13:30N 38°50' W 090°06'0 0.0
2018-May-06 13:00N 38°50' W 090°06'0 0.0
2018-May-06 12:30N 38°50' W 090°06'0 0.0
2018-May-06 12:00N 38°50' W 090°06'0 0.0
2018-May-06 11:28N 38°50' W 090°06'0 0.0
2018-May-06 11:01N 38°50' W 090°06'0 0.0
2018-May-06 10:31N 38°50' W 090°06'0 0.0
2018-May-06 10:00N 38°50' W 090°06'0 0.0
2018-May-06 09:30N 38°50' W 090°06'0 0.0
2018-May-06 09:00N 38°50' W 090°06'0 0.0
2018-May-06 08:30N 38°50' W 090°06'0 0.0
2018-May-06 07:58N 38°50' W 090°06'0 0.0
2018-May-06 07:30N 38°50' W 090°06'0 0.0
2018-May-06 07:00N 38°50' W 090°06'0 0.0
2018-May-06 06:29N 38°50' W 090°06'0 0.0
2018-May-06 06:01N 38°50' W 090°06'0 0.0
2018-May-06 05:28N 38°50' W 090°06'0 0.0
2018-May-06 04:59N 38°50' W 090°06'0 0.0
2018-May-06 04:27N 38°50' W 090°06'0 0.0
2018-May-06 04:00N 38°50' W 090°06'0 0.0
2018-May-06 03:26N 38°50' W 090°06'0 0.0
2018-May-06 03:01N 38°50' W 090°06'0 0.0
2018-May-06 02:31N 38°50' W 090°06'0 0.0
2018-May-06 01:58N 38°50' W 090°06'0 0.0
2018-May-06 01:29N 38°50' W 090°06'0 0.0
2018-May-06 01:01N 38°50' W 090°06'0 0.0
2018-May-06 00:31N 38°50' W 090°06'0 0.0
2018-May-05 23:59N 38°50' W 090°06'0 0.0
2018-May-05 23:31N 38°50' W 090°06'0 0.0
2018-May-05 23:00N 38°50' W 090°06'0 0.0
2018-May-05 22:31N 38°50' W 090°06'0 0.0
2018-May-05 22:01N 38°50' W 090°06'0 0.0
2018-May-05 21:30N 38°50' W 090°06'0 0.0
2018-May-05 20:59N 38°50' W 090°06'0 0.0
2018-May-05 20:26N 38°50' W 090°06'0 0.0
2018-May-05 20:00N 38°50' W 090°06'0 0.0
2018-May-05 19:31N 38°50' W 090°06'0 0.0
2018-May-05 19:00N 38°50' W 090°06'0 0.0
2018-May-05 18:31N 38°50' W 090°06'0 0.0
2018-May-05 18:00N 38°50' W 090°06'0 0.0
2018-May-05 17:30N 38°50' W 090°06'0 0.0
2018-May-05 16:58N 38°50' W 090°06'0 0.0
2018-May-05 16:26N 38°50' W 090°06'0 0.0
2018-May-05 15:59N 38°50' W 090°06'0 0.0
2018-May-05 15:29N 38°50' W 090°06'0 0.0
2018-May-05 15:01N 38°50' W 090°06'0 0.0
2018-May-05 14:25N 38°50' W 090°06'0 0.0
2018-May-05 13:59N 38°50' W 090°06'0 0.0
2018-May-05 13:30N 38°50' W 090°06'0 0.0
2018-May-05 13:00N 38°50' W 090°06'0 0.0
2018-May-05 12:28N 38°50' W 090°06'0 0.0
2018-May-05 12:01N 38°50' W 090°06'0 0.0
2018-May-05 11:31N 38°50' W 090°06'0 0.0
2018-May-05 11:00N 38°50' W 090°06'0 0.0
2018-May-05 10:31N 38°50' W 090°06'0 0.0
2018-May-05 09:57N 38°50' W 090°06'0 0.0
2018-May-05 09:30N 38°50' W 090°06'0 0.0
2018-May-05 08:53N 38°50' W 090°06'0 0.0
2018-May-05 08:31N 38°50' W 090°06'0 0.0
2018-May-05 08:00N 38°50' W 090°06'0 0.0
2018-May-05 07:31N 38°50' W 090°06'0 0.0
2018-May-05 06:57N 38°50' W 090°06'0 0.0
2018-May-05 06:31N 38°50' W 090°06'0 0.0
2018-May-05 06:01N 38°50' W 090°06'0 0.0
2018-May-05 05:30N 38°50' W 090°06'0 0.0
2018-May-05 05:00N 38°50' W 090°06'0 0.0
2018-May-05 04:30N 38°50' W 090°06'0 0.0
2018-May-05 04:00N 38°50' W 090°06'0 0.0
2018-May-05 03:30N 38°50' W 090°06'0 0.0
2018-May-05 03:01N 38°50' W 090°06'0 0.0
2018-May-05 02:22N 38°50' W 090°06'0 0.0
2018-May-05 01:55N 38°50' W 090°06'0 0.0
2018-May-05 01:30N 38°50' W 090°06'0 0.0
2018-May-05 01:00N 38°50' W 090°06'0 0.0
2018-May-05 00:28N 38°50' W 090°06'0 0.0
2018-May-05 00:00N 38°50' W 090°06'0 0.0
2018-May-04 23:29N 38°50' W 090°06'0 0.0
2018-May-04 23:01N 38°50' W 090°06'0 0.0
2018-May-04 22:30N 38°50' W 090°06'0 0.0
2018-May-04 21:58N 38°50' W 090°06'0 0.0
2018-May-04 21:30N 38°50' W 090°06'0 0.0
2018-May-04 21:01N 38°50' W 090°06'0 0.0
2018-May-04 20:29N 38°50' W 090°06'0 0.0
2018-May-04 20:00N 38°50' W 090°06'0 0.0
2018-May-04 19:30N 38°50' W 090°06'0 0.0
2018-May-04 19:00N 38°50' W 090°06'0 0.0
2018-May-04 18:31N 38°50' W 090°06'0 0.0
2018-May-04 17:57N 38°50' W 090°06'0 0.0
2018-May-04 17:28N 38°50' W 090°06'0 0.0
2018-May-04 17:00N 38°50' W 090°06'0 0.0
2018-May-04 16:31N 38°50' W 090°06'0 0.0
2018-May-04 16:00N 38°50' W 090°06'0 0.0
2018-May-04 15:31N 38°50' W 090°06'0 0.0
2018-May-04 15:00N 38°50' W 090°06'0 0.0
2018-May-04 14:30N 38°50' W 090°06'0 0.0
2018-May-04 14:00N 38°50' W 090°06'0 0.0
2018-May-04 13:27N 38°50' W 090°06'0 0.0
2018-May-04 12:59N 38°50' W 090°06'0 0.0
2018-May-04 12:29N 38°50' W 090°06'0 0.0
2018-May-04 12:01N 38°50' W 090°06'0 0.0
2018-May-04 11:30N 38°50' W 090°06'0 0.0
2018-May-04 10:58N 38°50' W 090°06'0 0.0
2018-May-04 10:28N 38°50' W 090°06'0 0.0
2018-May-04 10:01N 38°50' W 090°06'0 0.0
2018-May-04 09:31N 38°50' W 090°06'0 0.0
2018-May-04 08:58N 38°50' W 090°06'0 0.0
2018-May-04 08:31N 38°50' W 090°06'0 0.0
2018-May-04 07:57N 38°50' W 090°06'0 0.0
2018-May-04 07:27N 38°50' W 090°06'0 0.0
2018-May-04 06:57N 38°50' W 090°06'0 0.0
2018-May-04 06:30N 38°50' W 090°06'0 0.0
2018-May-04 06:01N 38°50' W 090°06'0 0.0
2018-May-04 05:30N 38°50' W 090°06'0 0.0
2018-May-04 05:00N 38°50' W 090°06'0 0.0
2018-May-04 04:27N 38°50' W 090°06'0 0.0
2018-May-04 04:01N 38°50' W 090°06'0 0.0
2018-May-04 03:28N 38°50' W 090°06'0 0.0
2018-May-04 02:59N 38°50' W 090°06'0 0.0
2018-May-04 02:31N 38°50' W 090°06'0 0.0
2018-May-04 01:59N 38°50' W 090°06'0 0.0
2018-May-04 01:30N 38°50' W 090°06'0 0.0
2018-May-04 01:01N 38°50' W 090°06'0 0.0
2018-May-04 00:30N 38°50' W 090°06'0 0.0
2018-May-04 00:00N 38°50' W 090°06'0 0.1
2018-May-03 23:31N 38°50' W 090°06'0 0.0
2018-May-03 23:01N 38°50' W 090°06'1 1.2
2018-May-03 22:31N 38°49' W 090°07'0 0.0
2018-May-03 22:00N 38°49' W 090°07'0 0.0
2018-May-03 21:29N 38°49' W 090°07'0 0.0
2018-May-03 21:00N 38°49' W 090°07'0 0.0
2018-May-03 20:31N 38°49' W 090°07'0 0.0
2018-May-03 20:00N 38°49' W 090°07'0 0.0
2018-May-03 19:24N 38°49' W 090°07'0 0.0
2018-May-03 19:00N 38°49' W 090°07'0 0.2
2018-May-03 18:31N 38°49' W 090°07'2 4.4
2018-May-03 18:00N 38°47' W 090°07'4 7.1
2018-May-03 17:30N 38°44' W 090°10'2 3.7
2018-May-03 16:55N 38°42' W 090°11'2 4.2
2018-May-03 16:31N 38°40' W 090°11'2 3.6
2018-May-03 16:01N 38°39' W 090°11'2 3.7
2018-May-03 15:23N 38°36' W 090°11'  
Track history (hours):
 
Tides and Currents Weather Stations Pressure Air Temp Water Temp Dewpoint Dewpoint Depression Visibility Wind Speed Wind Dir Waves Ship Positions

Mary K Cavarra

Owner: Ingram Barge Company LLC, Nashville, TN. More information available from US FCC via Universal Licensing System and Coast Guard Vessel Documentation Center.

Last reported at 2018-May-13 14:46 UTC. Time now 2018-Jun-21 02:51 UTC.
Position N 38°38' W 090°11'.
Warning: this ship's position is 38 days out of date.

Length 48 m; draft 3.2 m.

Type: Towing. MMSI: 366967650.

Date/timePositionNaut miles runAvg speedWind from/ knotsBaromVisibWave heightAir tempDewpointWater temp
2018-May-13 14:46N 38°38' W 090°11'310.3
2018-May-13 14:30N 38°40' W 090°11'2 2.7
2018-May-13 13:45N 38°42' W 090°11'1 2.1
2018-May-13 13:26N 38°43' W 090°10'2 4.1
2018-May-13 13:00N 38°45' W 090°09'3 5.0
2018-May-13 12:30N 38°47' W 090°08'3 6.5
2018-May-13 12:00N 38°50' W 090°07'3 6.2
2018-May-13 11:31N 38°52' W 090°09'0 0.6
2018-May-13 11:00N 38°52' W 090°09'1 2.7
2018-May-13 10:31N 38°53' W 090°11'4 7.2
2018-May-13 10:00N 38°55' W 090°15'0 0.2
2018-May-13 09:31N 38°55' W 090°15'0 0.3
2018-May-13 09:00N 38°55' W 090°14'0 0.1
2018-May-13 08:31N 38°55' W 090°14'0 0.0
2018-May-13 08:00N 38°55' W 090°14'0 0.3
2018-May-13 07:31N 38°55' W 090°15'0 0.3
2018-May-13 07:01N 38°55' W 090°14'1 1.7
2018-May-13 06:31N 38°55' W 090°14'2 4.6
2018-May-13 06:00N 38°53' W 090°11'2 4.4
2018-May-13 05:30N 38°52' W 090°09'0 0.7
2018-May-13 05:01N 38°52' W 090°09'1 1.8
2018-May-13 04:31N 38°51' W 090°08'2 3.9
2018-May-13 04:00N 38°50' W 090°07'2 4.9
2018-May-13 03:31N 38°47' W 090°07'3 5.0
2018-May-13 03:00N 38°45' W 090°09'2 4.2
2018-May-13 02:27N 38°43' W 090°10'1 1.4
2018-May-13 01:28N 38°42' W 090°11'1 2.4
2018-May-13 00:59N 38°41' W 090°11'2 4.2
2018-May-13 00:31N 38°39' W 090°11'7 0.8
2018-May-12 15:02N 38°32' W 090°15'0 0.0
2018-May-11 11:43N 38°32' W 090°15'0 0.0
2018-May-11 11:29N 38°32' W 090°15'0 0.0
2018-May-11 09:16N 38°32' W 090°15'1 2.9
2018-May-11 09:00N 38°32' W 090°16'0 0.4
2018-May-11 07:57N 38°31' W 090°16'0 0.0
2018-May-11 07:26N 38°31' W 090°16'0 0.0
2018-May-11 06:39N 38°31' W 090°16'1 0.5
2018-May-11 04:17N 38°32' W 090°15'  
2018-May-07 04:31N 38°32' W 090°16'0 2.4
2018-May-07 04:31N 38°32' W 090°16'0 0.5
2018-May-07 03:59N 38°31' W 090°16'1 2.4
2018-May-07 03:30N 38°32' W 090°15'0 0.1
2018-May-07 03:00N 38°32' W 090°15'0 0.0
2018-May-07 02:30N 38°32' W 090°15'0 0.0
2018-May-07 02:00N 38°32' W 090°15'0 0.0
2018-May-06 23:00N 38°32' W 090°15'16 7.0
2018-May-06 20:40N 38°48' W 090°07'2 8.8
2018-May-06 20:28N 38°49' W 090°07'1 1.4
2018-May-06 20:01N 38°50' W 090°06'0 0.0
2018-May-06 19:24N 38°50' W 090°06'0 0.0
2018-May-06 19:01N 38°50' W 090°06'0 0.0
2018-May-06 18:30N 38°50' W 090°06'0 0.0
2018-May-06 18:01N 38°50' W 090°06'0 0.0
2018-May-06 17:31N 38°50' W 090°06'0 0.0
2018-May-06 17:01N 38°50' W 090°06'0 0.0
2018-May-06 16:31N 38°50' W 090°06'0 0.0
2018-May-06 16:01N 38°50' W 090°06'0 0.1
2018-May-06 15:30N 38°50' W 090°06'0 0.0
2018-May-06 14:58N 38°50' W 090°06'0 0.0
2018-May-06 14:29N 38°50' W 090°06'0 0.0
2018-May-06 14:01N 38°50' W 090°06'0 0.0
2018-May-06 13:30N 38°50' W 090°06'0 0.0
2018-May-06 13:00N 38°50' W 090°06'0 0.0
2018-May-06 12:30N 38°50' W 090°06'0 0.0
2018-May-06 12:00N 38°50' W 090°06'0 0.0
2018-May-06 11:28N 38°50' W 090°06'0 0.0
2018-May-06 11:01N 38°50' W 090°06'0 0.0
2018-May-06 10:31N 38°50' W 090°06'0 0.0
2018-May-06 10:00N 38°50' W 090°06'0 0.0
2018-May-06 09:30N 38°50' W 090°06'0 0.0
2018-May-06 09:00N 38°50' W 090°06'0 0.0
2018-May-06 08:30N 38°50' W 090°06'0 0.0
2018-May-06 07:58N 38°50' W 090°06'0 0.0
2018-May-06 07:30N 38°50' W 090°06'0 0.0
2018-May-06 07:00N 38°50' W 090°06'0 0.0
2018-May-06 06:29N 38°50' W 090°06'0 0.0
2018-May-06 06:01N 38°50' W 090°06'0 0.0
2018-May-06 05:28N 38°50' W 090°06'0 0.0
2018-May-06 04:59N 38°50' W 090°06'0 0.0
2018-May-06 04:27N 38°50' W 090°06'0 0.0
2018-May-06 04:00N 38°50' W 090°06'0 0.0
2018-May-06 03:26N 38°50' W 090°06'0 0.0
2018-May-06 03:01N 38°50' W 090°06'0 0.0
2018-May-06 02:31N 38°50' W 090°06'0 0.0
2018-May-06 01:58N 38°50' W 090°06'0 0.0
2018-May-06 01:29N 38°50' W 090°06'0 0.0
2018-May-06 01:01N 38°50' W 090°06'0 0.0
2018-May-06 00:31N 38°50' W 090°06'0 0.0
2018-May-05 23:59N 38°50' W 090°06'0 0.0
2018-May-05 23:31N 38°50' W 090°06'0 0.0
2018-May-05 23:00N 38°50' W 090°06'0 0.0
2018-May-05 22:31N 38°50' W 090°06'0 0.0
2018-May-05 22:01N 38°50' W 090°06'0 0.0
2018-May-05 21:30N 38°50' W 090°06'0 0.0
2018-May-05 20:59N 38°50' W 090°06'0 0.0
2018-May-05 20:26N 38°50' W 090°06'0 0.0
2018-May-05 20:00N 38°50' W 090°06'0 0.0
2018-May-05 19:31N 38°50' W 090°06'0 0.0
2018-May-05 19:00N 38°50' W 090°06'0 0.0
2018-May-05 18:31N 38°50' W 090°06'0 0.0
2018-May-05 18:00N 38°50' W 090°06'0 0.0
2018-May-05 17:30N 38°50' W 090°06'0 0.0
2018-May-05 16:58N 38°50' W 090°06'0 0.0
2018-May-05 16:26N 38°50' W 090°06'0 0.0
2018-May-05 15:59N 38°50' W 090°06'0 0.0
2018-May-05 15:29N 38°50' W 090°06'0 0.0
2018-May-05 15:01N 38°50' W 090°06'0 0.0
2018-May-05 14:25N 38°50' W 090°06'0 0.0
2018-May-05 13:59N 38°50' W 090°06'0 0.0
2018-May-05 13:30N 38°50' W 090°06'0 0.0
2018-May-05 13:00N 38°50' W 090°06'0 0.0
2018-May-05 12:28N 38°50' W 090°06'0 0.0
2018-May-05 12:01N 38°50' W 090°06'0 0.0
2018-May-05 11:31N 38°50' W 090°06'0 0.0
2018-May-05 11:00N 38°50' W 090°06'0 0.0
2018-May-05 10:31N 38°50' W 090°06'0 0.0
2018-May-05 09:57N 38°50' W 090°06'0 0.0
2018-May-05 09:30N 38°50' W 090°06'0 0.0
2018-May-05 08:53N 38°50' W 090°06'0 0.0
2018-May-05 08:31N 38°50' W 090°06'0 0.0
2018-May-05 08:00N 38°50' W 090°06'0 0.0
2018-May-05 07:31N 38°50' W 090°06'0 0.0
2018-May-05 06:57N 38°50' W 090°06'0 0.0
2018-May-05 06:31N 38°50' W 090°06'0 0.0
2018-May-05 06:01N 38°50' W 090°06'0 0.0
2018-May-05 05:30N 38°50' W 090°06'0 0.0
2018-May-05 05:00N 38°50' W 090°06'0 0.0
2018-May-05 04:30N 38°50' W 090°06'0 0.0
2018-May-05 04:00N 38°50' W 090°06'0 0.0
2018-May-05 03:30N 38°50' W 090°06'0 0.0
2018-May-05 03:01N 38°50' W 090°06'0 0.0
2018-May-05 02:22N 38°50' W 090°06'0 0.0
2018-May-05 01:55N 38°50' W 090°06'0 0.0
2018-May-05 01:30N 38°50' W 090°06'0 0.0
2018-May-05 01:00N 38°50' W 090°06'0 0.0
2018-May-05 00:28N 38°50' W 090°06'0 0.0
2018-May-05 00:00N 38°50' W 090°06'0 0.0
2018-May-04 23:29N 38°50' W 090°06'0 0.0
2018-May-04 23:01N 38°50' W 090°06'0 0.0
2018-May-04 22:30N 38°50' W 090°06'0 0.0
2018-May-04 21:58N 38°50' W 090°06'0 0.0
2018-May-04 21:30N 38°50' W 090°06'0 0.0
2018-May-04 21:01N 38°50' W 090°06'0 0.0
2018-May-04 20:29N 38°50' W 090°06'0 0.0
2018-May-04 20:00N 38°50' W 090°06'0 0.0
2018-May-04 19:30N 38°50' W 090°06'0 0.0
2018-May-04 19:00N 38°50' W 090°06'0 0.0
2018-May-04 18:31N 38°50' W 090°06'0 0.0
2018-May-04 17:57N 38°50' W 090°06'0 0.0
2018-May-04 17:28N 38°50' W 090°06'0 0.0
2018-May-04 17:00N 38°50' W 090°06'0 0.0
2018-May-04 16:31N 38°50' W 090°06'0 0.0
2018-May-04 16:00N 38°50' W 090°06'0 0.0
2018-May-04 15:31N 38°50' W 090°06'0 0.0
2018-May-04 15:00N 38°50' W 090°06'0 0.0
2018-May-04 14:30N 38°50' W 090°06'0 0.0
2018-May-04 14:00N 38°50' W 090°06'0 0.0
2018-May-04 13:27N 38°50' W 090°06'0 0.0
2018-May-04 12:59N 38°50' W 090°06'0 0.0
2018-May-04 12:29N 38°50' W 090°06'0 0.0
2018-May-04 12:01N 38°50' W 090°06'0 0.0
2018-May-04 11:30N 38°50' W 090°06'0 0.0
2018-May-04 10:58N 38°50' W 090°06'0 0.0
2018-May-04 10:28N 38°50' W 090°06'0 0.0
2018-May-04 10:01N 38°50' W 090°06'0 0.0
2018-May-04 09:31N 38°50' W 090°06'0 0.0
2018-May-04 08:58N 38°50' W 090°06'0 0.0
2018-May-04 08:31N 38°50' W 090°06'0 0.0
2018-May-04 07:57N 38°50' W 090°06'0 0.0
2018-May-04 07:27N 38°50' W 090°06'0 0.0
2018-May-04 06:57N 38°50' W 090°06'0 0.0
2018-May-04 06:30N 38°50' W 090°06'0 0.0
2018-May-04 06:01N 38°50' W 090°06'0 0.0
2018-May-04 05:30N 38°50' W 090°06'0 0.0
2018-May-04 05:00N 38°50' W 090°06'0 0.0
2018-May-04 04:27N 38°50' W 090°06'0 0.0
2018-May-04 04:01N 38°50' W 090°06'0 0.0
2018-May-04 03:28N 38°50' W 090°06'0 0.0
2018-May-04 02:59N 38°50' W 090°06'0 0.0
2018-May-04 02:31N 38°50' W 090°06'0 0.0
2018-May-04 01:59N 38°50' W 090°06'0 0.0
2018-May-04 01:30N 38°50' W 090°06'0 0.0
2018-May-04 01:01N 38°50' W 090°06'0 0.0
2018-May-04 00:30N 38°50' W 090°06'0 0.0
2018-May-04 00:00N 38°50' W 090°06'0 0.1
2018-May-03 23:31N 38°50' W 090°06'0 0.0
2018-May-03 23:01N 38°50' W 090°06'1 1.2
2018-May-03 22:31N 38°49' W 090°07'0 0.0
2018-May-03 22:00N 38°49' W 090°07'0 0.0
2018-May-03 21:29N 38°49' W 090°07'0 0.0
2018-May-03 21:00N 38°49' W 090°07'0 0.0
2018-May-03 20:31N 38°49' W 090°07'0 0.0
2018-May-03 20:00N 38°49' W 090°07'0 0.0
2018-May-03 19:24N 38°49' W 090°07'0 0.0
2018-May-03 19:00N 38°49' W 090°07'0 0.2
2018-May-03 18:31N 38°49' W 090°07'2 4.4
2018-May-03 18:00N 38°47' W 090°07'4 7.1
2018-May-03 17:30N 38°44' W 090°10'2 3.7
2018-May-03 16:55N 38°42' W 090°11'2 4.2
2018-May-03 16:31N 38°40' W 090°11'2 3.6
2018-May-03 16:01N 38°39' W 090°11'2 3.7
2018-May-03 15:23N 38°36' W 090°11'  

Dump ship's entire track history